createdAt,value
2023-05-14T00:01:40.528Z,100307.16
2023-05-14T00:04:08.508Z,100303.97
2023-05-14T00:06:36.506Z,100305.13
2023-05-14T00:09:04.469Z,100304.06
2023-05-14T00:11:32.461Z,100298.72
2023-05-14T00:14:00.413Z,100298.91
2023-05-14T00:16:28.435Z,100301.25
2023-05-14T00:18:57.797Z,100295.50
2023-05-14T00:21:25.724Z,100296.50
2023-05-14T00:23:53.637Z,100300.53
2023-05-14T00:26:21.549Z,100291.50
2023-05-14T00:28:49.773Z,100288.75
2023-05-14T00:31:17.746Z,100289.06
2023-05-14T00:33:45.918Z,100291.69
2023-05-14T00:36:15.266Z,100302.81
2023-05-14T00:38:43.189Z,100296.81
2023-05-14T00:41:11.152Z,100298.47
2023-05-14T00:43:39.067Z,100301.75
2023-05-14T00:46:07.143Z,100296.88
2023-05-14T00:48:35.254Z,100271.47
2023-05-14T00:51:03.176Z,100261.69
2023-05-14T00:53:32.705Z,100274.41
2023-05-14T00:56:00.654Z,100268.44
2023-05-14T00:58:28.734Z,100260.28
2023-05-14T01:00:56.845Z,100261.94
2023-05-14T01:03:24.852Z,100262.34
2023-05-14T01:06:01.129Z,100253.66
2023-05-14T01:08:37.598Z,100254.81
2023-05-14T01:11:09.012Z,100256.28
2023-05-14T01:13:46.580Z,100254.00
2023-05-14T01:16:16.892Z,100249.91
2023-05-14T01:18:45.731Z,100244.91
2023-05-14T01:21:34.333Z,100244.06
2023-05-14T01:24:02.233Z,100239.50
2023-05-14T01:26:31.360Z,100240.44
2023-05-14T01:29:03.542Z,100251.53
2023-05-14T01:31:34.367Z,100249.94
2023-05-14T01:34:03.260Z,100250.31
2023-05-14T01:36:33.009Z,100250.00
2023-05-14T01:39:03.766Z,100248.94
2023-05-14T01:41:33.168Z,100246.28
2023-05-14T01:44:01.160Z,100237.53
2023-05-14T01:46:32.971Z,100221.69
2023-05-14T01:49:01.195Z,100215.25
2023-05-14T01:51:29.226Z,100226.19
2023-05-14T01:53:58.609Z,100228.38
2023-05-14T01:56:27.132Z,100229.09
2023-05-14T01:58:55.703Z,100226.47
2023-05-14T02:01:23.877Z,100211.28
2023-05-14T02:03:51.930Z,100223.84
2023-05-14T02:06:19.840Z,100224.22
2023-05-14T02:08:47.793Z,100221.56
2023-05-14T02:11:17.115Z,100232.22
2023-05-14T02:13:45.170Z,100217.56
2023-05-14T02:16:13.135Z,100243.94
2023-05-14T02:18:41.105Z,100252.03
2023-05-14T02:21:09.180Z,100243.66
2023-05-14T02:23:41.681Z,100241.31
2023-05-14T02:26:10.846Z,100251.56
2023-05-14T02:28:40.181Z,100241.28
2023-05-14T02:31:08.189Z,100234.63
2023-05-14T02:33:36.312Z,100230.31
2023-05-14T02:36:04.764Z,100238.19
2023-05-14T02:38:32.707Z,100238.06
2023-05-14T02:41:00.736Z,100237.97
2023-05-14T02:43:28.685Z,100234.63
2023-05-14T02:45:57.996Z,100224.59
2023-05-14T02:48:26.205Z,100245.34
2023-05-14T02:50:54.115Z,100251.09
2023-05-14T02:53:22.492Z,100265.03
2023-05-14T02:55:50.573Z,100272.78
2023-05-14T02:58:19.190Z,100277.69
2023-05-14T03:00:53.444Z,100281.59
2023-05-14T03:03:23.342Z,100280.41
2023-05-14T03:05:52.002Z,100283.03
2023-05-14T03:08:19.994Z,100287.19
2023-05-14T03:10:47.944Z,100295.88
2023-05-14T03:13:17.876Z,100288.72
2023-05-14T03:15:46.968Z,100290.44
2023-05-14T03:18:15.200Z,100301.59
2023-05-14T03:20:44.573Z,100294.44
2023-05-14T03:23:12.489Z,100286.47
2023-05-14T03:25:40.448Z,100278.84
2023-05-14T03:28:08.446Z,100283.84
2023-05-14T03:30:36.599Z,100287.53
2023-05-14T03:33:04.823Z,100293.97
2023-05-14T03:35:32.809Z,100295.88
2023-05-14T03:38:02.034Z,100292.66
2023-05-14T03:40:30.042Z,100294.09
2023-05-14T03:42:58.041Z,100284.09
2023-05-14T03:45:26.938Z,100309.00
2023-05-14T03:47:55.002Z,100311.41
2023-05-14T03:50:25.518Z,100315.81
2023-05-14T03:52:53.713Z,100314.03
2023-05-14T03:55:23.267Z,100303.66
2023-05-14T03:57:51.260Z,100310.19
2023-05-14T04:00:19.676Z,100304.91
2023-05-14T04:02:47.683Z,100303.03
2023-05-14T04:05:15.812Z,100294.34
2023-05-14T04:07:45.264Z,100303.25
2023-05-14T04:10:14.107Z,100312.94
2023-05-14T04:12:43.384Z,100309.38
2023-05-14T04:15:12.472Z,100301.81
2023-05-14T04:17:40.443Z,100304.34
2023-05-14T04:20:09.765Z,100312.31
2023-05-14T04:22:37.625Z,100311.94
2023-05-14T04:25:06.241Z,100306.97
2023-05-14T04:27:34.487Z,100303.28
2023-05-14T04:30:03.834Z,100295.53
2023-05-14T04:32:31.706Z,100294.72
2023-05-14T04:34:59.598Z,100300.22
2023-05-14T04:37:27.540Z,100310.97
2023-05-14T04:39:55.442Z,100312.63
2023-05-14T04:42:23.310Z,100306.22
2023-05-14T04:44:51.210Z,100304.31
2023-05-14T04:47:21.115Z,100327.59
2023-05-14T04:49:49.253Z,100324.22
2023-05-14T04:52:17.273Z,100337.97
2023-05-14T04:54:45.231Z,100338.78
2023-05-14T04:57:13.192Z,100325.06
2023-05-14T04:59:41.136Z,100319.94
2023-05-14T05:02:09.196Z,100316.22
2023-05-14T05:04:38.486Z,100306.56
2023-05-14T05:07:06.611Z,100313.69
2023-05-14T05:09:34.516Z,100323.03
2023-05-14T05:12:02.553Z,100334.72
2023-05-14T05:14:30.423Z,100324.56
2023-05-14T05:16:58.373Z,100321.69
2023-05-14T05:19:35.827Z,100307.88
2023-05-14T05:22:12.145Z,100313.00
2023-05-14T05:24:40.143Z,100313.00
2023-05-14T05:27:08.241Z,100327.81
2023-05-14T05:29:36.445Z,100345.34
2023-05-14T05:32:04.539Z,100343.88
2023-05-14T05:34:32.543Z,100341.38
2023-05-14T05:37:00.454Z,100330.78
2023-05-14T05:39:34.997Z,100348.94
2023-05-14T05:42:03.641Z,100343.19
2023-05-14T05:44:31.578Z,100359.66
2023-05-14T05:46:59.617Z,100357.06
2023-05-14T05:49:27.626Z,100353.91
2023-05-14T05:51:55.546Z,100355.34
2023-05-14T05:54:24.420Z,100354.63
2023-05-14T05:56:53.705Z,100350.81
2023-05-14T05:59:21.758Z,100356.44
2023-05-14T06:01:49.690Z,100382.66
2023-05-14T06:04:17.866Z,100364.19
2023-05-14T06:06:45.780Z,100380.16
2023-05-14T06:09:13.962Z,100375.19
2023-05-14T06:11:41.867Z,100387.34
2023-05-14T06:14:11.132Z,100395.22
2023-05-14T06:16:39.081Z,100409.31
2023-05-14T06:19:08.433Z,100399.53
2023-05-14T06:21:36.470Z,100398.56
2023-05-14T06:24:04.485Z,100407.16
2023-05-14T06:26:32.426Z,100404.66
2023-05-14T06:29:00.456Z,100415.75
2023-05-14T06:31:29.725Z,100418.16
2023-05-14T06:33:57.706Z,100421.59
2023-05-14T06:36:25.584Z,100426.03
2023-05-14T06:38:53.491Z,100430.56
2023-05-14T06:41:21.410Z,100444.16
2023-05-14T06:43:49.489Z,100445.94
2023-05-14T06:46:17.475Z,100460.63
2023-05-14T06:48:46.805Z,100472.97
2023-05-14T06:51:14.737Z,100476.78
2023-05-14T06:53:42.672Z,100473.94
2023-05-14T06:56:10.989Z,100473.41
2023-05-14T06:58:38.871Z,100481.34
2023-05-14T07:01:06.826Z,100481.88
2023-05-14T07:03:34.751Z,100478.34
2023-05-14T07:06:04.065Z,100471.41
2023-05-14T07:08:31.949Z,100481.66
2023-05-14T07:11:00.132Z,100472.94
2023-05-14T07:13:28.836Z,100454.31
2023-05-14T07:15:56.923Z,100450.97
2023-05-14T07:18:24.936Z,100452.31
2023-05-14T07:20:52.935Z,100455.19
2023-05-14T07:23:22.287Z,100451.13
2023-05-14T07:25:50.368Z,100447.69
2023-05-14T07:28:18.294Z,100449.75
2023-05-14T07:30:46.183Z,100439.84
2023-05-14T07:33:14.057Z,100435.09
2023-05-14T07:35:42.437Z,100407.22
2023-05-14T07:38:10.425Z,100393.28
2023-05-14T07:40:39.829Z,100408.31
2023-05-14T07:43:07.723Z,100433.66
2023-05-14T07:45:37.245Z,100444.47
2023-05-14T07:48:05.611Z,100451.91
2023-05-14T07:50:33.622Z,100433.53
2023-05-14T07:53:01.505Z,100459.81
2023-05-14T07:55:29.495Z,100457.75
2023-05-14T07:57:58.794Z,100433.19
2023-05-14T08:00:27.194Z,100456.31
2023-05-14T08:02:56.538Z,100442.16
2023-05-14T08:05:24.619Z,100427.56
2023-05-14T08:07:52.581Z,100412.56
2023-05-14T08:10:20.663Z,100446.91
2023-05-14T08:12:48.593Z,100452.41
2023-05-14T08:15:17.889Z,100449.09
2023-05-14T08:17:45.874Z,100448.28
2023-05-14T08:20:14.522Z,100475.84
2023-05-14T08:22:48.368Z,100485.00
2023-05-14T08:25:16.265Z,100495.88
2023-05-14T08:27:44.263Z,100503.69
2023-05-14T08:30:12.977Z,100509.88
2023-05-14T08:32:42.601Z,100511.28
2023-05-14T08:35:10.977Z,100510.09
2023-05-14T08:37:38.937Z,100535.06
2023-05-14T08:40:08.818Z,100529.94
2023-05-14T08:42:40.516Z,100507.88
2023-05-14T08:45:14.908Z,100519.97
2023-05-14T08:47:48.519Z,100527.06
2023-05-14T08:50:17.006Z,100526.41
2023-05-14T08:52:45.685Z,100520.56
2023-05-14T08:55:13.982Z,100532.94
2023-05-14T08:57:41.956Z,100533.44
2023-05-14T09:00:12.351Z,100509.31
2023-05-14T09:02:41.877Z,100485.88
2023-05-14T09:05:11.612Z,100506.56
2023-05-14T09:07:39.973Z,100500.38
2023-05-14T09:10:10.055Z,100487.06
2023-05-14T09:12:37.952Z,100501.34
2023-05-14T09:15:07.256Z,100501.44
2023-05-14T09:17:35.844Z,100500.13
2023-05-14T09:20:04.594Z,100502.41
2023-05-14T09:22:35.695Z,100499.78
2023-05-14T09:25:06.152Z,100497.78
2023-05-14T09:27:34.833Z,100498.53
2023-05-14T09:30:10.399Z,100491.19
2023-05-14T09:32:40.280Z,100475.31
2023-05-14T09:35:17.636Z,100491.94
2023-05-14T09:37:49.016Z,100492.47
2023-05-14T09:40:18.419Z,100485.44
2023-05-14T09:42:46.782Z,100493.06
2023-05-14T09:45:14.790Z,100489.19
2023-05-14T09:47:43.022Z,100468.03
2023-05-14T09:50:11.374Z,100461.31
2023-05-14T09:52:39.741Z,100444.94
2023-05-14T09:55:13.091Z,100442.72
2023-05-14T09:57:41.011Z,100442.91
2023-05-14T10:00:10.382Z,100442.28
2023-05-14T10:02:41.284Z,100441.06
2023-05-14T10:05:10.457Z,100436.59
2023-05-14T10:07:42.652Z,100434.34
2023-05-14T10:10:17.172Z,100432.66
2023-05-14T10:12:52.122Z,100448.81
2023-05-14T10:15:23.022Z,100441.22
2023-05-14T10:17:57.403Z,100443.91
2023-05-14T10:20:28.252Z,100445.41
2023-05-14T10:22:56.503Z,100448.00
2023-05-14T10:25:26.474Z,100441.34
2023-05-14T10:27:55.137Z,100442.06
2023-05-14T10:30:24.075Z,100447.91
2023-05-14T10:33:07.746Z,100449.88
2023-05-14T10:35:56.160Z,100439.50
2023-05-14T10:38:27.199Z,100430.22
2023-05-14T10:40:59.883Z,100411.06
2023-05-14T10:43:29.409Z,100423.22
2023-05-14T10:45:58.427Z,100412.53
2023-05-14T10:48:27.168Z,100406.13
2023-05-14T10:50:55.552Z,100385.50
2023-05-14T10:53:33.938Z,100400.09
2023-05-14T10:56:07.182Z,100397.63
2023-05-14T10:58:38.208Z,100391.63
2023-05-14T11:01:08.355Z,100392.28
2023-05-14T11:03:42.119Z,100368.75
2023-05-14T11:06:10.610Z,100385.75
2023-05-14T11:08:38.817Z,100389.81
2023-05-14T11:11:08.609Z,100399.91
2023-05-14T11:13:37.004Z,100378.28
2023-05-14T11:16:15.669Z,100375.81
2023-05-14T11:18:54.878Z,100367.63
2023-05-14T11:21:23.008Z,100358.22
2023-05-14T11:23:51.077Z,100359.19
2023-05-14T11:26:21.734Z,100360.50
2023-05-14T11:28:50.346Z,100365.28
2023-05-14T11:31:18.452Z,100372.44
2023-05-14T11:33:46.654Z,100359.31
2023-05-14T11:36:14.843Z,100336.75
2023-05-14T11:38:50.577Z,100342.97
2023-05-14T11:41:21.666Z,100363.81
2023-05-14T11:43:49.977Z,100374.31
2023-05-14T11:46:19.260Z,100373.47
2023-05-14T11:48:47.269Z,100376.84
2023-05-14T11:51:15.198Z,100371.97
2023-05-14T11:53:43.104Z,100363.63
2023-05-14T11:56:11.440Z,100367.31
2023-05-14T11:58:41.149Z,100373.53
2023-05-14T12:01:14.966Z,100365.38
2023-05-14T12:03:43.353Z,100365.28
2023-05-14T12:06:11.523Z,100363.25
2023-05-14T12:08:39.461Z,100372.75
2023-05-14T12:11:07.652Z,100374.69
2023-05-14T12:13:35.742Z,100368.97
2023-05-14T12:16:05.463Z,100335.16
2023-05-14T12:18:34.672Z,100358.22
2023-05-14T12:21:08.364Z,100351.09
2023-05-14T12:23:36.516Z,100346.28
2023-05-14T12:26:06.186Z,100334.31
2023-05-14T12:28:37.612Z,100335.81
2023-05-14T12:31:07.828Z,100341.31
2023-05-14T12:33:35.825Z,100333.59
2023-05-14T12:36:20.587Z,100318.59
2023-05-14T12:38:50.116Z,100316.47
2023-05-14T12:41:18.316Z,100304.81
2023-05-14T12:43:48.681Z,100301.75
2023-05-14T12:46:18.294Z,100286.16
2023-05-14T12:48:46.433Z,100280.88
2023-05-14T12:51:14.506Z,100274.13
2023-05-14T12:53:42.459Z,100273.84
2023-05-14T12:56:10.844Z,100283.41
2023-05-14T12:58:38.875Z,100283.75
2023-05-14T13:01:08.624Z,100283.25
2023-05-14T13:03:37.823Z,100284.47
2023-05-14T13:06:06.337Z,100277.91
2023-05-14T13:08:34.241Z,100282.56
2023-05-14T13:11:02.161Z,100279.09
2023-05-14T13:13:30.213Z,100264.81
2023-05-14T13:15:58.187Z,100264.75
2023-05-14T13:18:27.050Z,100272.38
2023-05-14T13:20:56.381Z,100273.28
2023-05-14T13:23:24.831Z,100264.38
2023-05-14T13:25:52.692Z,100251.53
2023-05-14T13:28:20.622Z,100247.66
2023-05-14T13:31:07.922Z,100230.75
2023-05-14T13:33:37.050Z,100245.75
2023-05-14T13:36:06.891Z,100243.56
2023-05-14T13:38:35.184Z,100239.91
2023-05-14T13:41:03.244Z,100250.84
2023-05-14T13:43:31.953Z,100247.16
2023-05-14T13:46:00.286Z,100254.84
2023-05-14T13:48:28.369Z,100246.53
2023-05-14T13:50:56.546Z,100249.41
2023-05-14T13:53:26.753Z,100246.44
2023-05-14T13:55:56.626Z,100238.38
2023-05-14T13:58:25.301Z,100233.56
2023-05-14T14:00:53.795Z,100235.84
2023-05-14T14:03:21.793Z,100238.84
2023-05-14T14:05:50.208Z,100241.91
2023-05-14T14:08:24.082Z,100248.88
2023-05-14T14:10:55.416Z,100230.88
2023-05-14T14:13:23.832Z,100229.19
2023-05-14T14:15:51.919Z,100237.22
2023-05-14T14:18:19.999Z,100240.28
2023-05-14T14:20:47.929Z,100229.19
2023-05-14T14:23:15.888Z,100232.78
2023-05-14T14:25:43.902Z,100224.72
2023-05-14T14:28:13.728Z,100214.91
2023-05-14T14:30:41.593Z,100210.03
2023-05-14T14:33:09.654Z,100200.66
2023-05-14T14:35:37.795Z,100191.50
2023-05-14T14:38:05.735Z,100196.75
2023-05-14T14:40:34.430Z,100200.56
2023-05-14T14:43:02.442Z,100200.53
2023-05-14T14:45:31.989Z,100171.88
2023-05-14T14:48:26.253Z,100193.69
2023-05-14T14:50:54.548Z,100186.56
2023-05-14T14:53:22.993Z,100192.25
2023-05-14T14:55:51.563Z,100180.06
2023-05-14T14:58:20.645Z,100181.25
2023-05-14T15:00:50.429Z,100171.00
2023-05-14T15:03:19.468Z,100168.41
2023-05-14T15:05:47.462Z,100176.28
2023-05-14T15:08:15.506Z,100163.56
2023-05-14T15:10:43.424Z,100163.69
2023-05-14T15:13:11.864Z,100160.72
2023-05-14T15:15:39.815Z,100163.31
2023-05-14T15:18:09.103Z,100157.19
2023-05-14T15:20:37.074Z,100158.81
2023-05-14T15:23:05.109Z,100161.47
2023-05-14T15:25:33.077Z,100168.00
2023-05-14T15:28:01.440Z,100158.28
2023-05-14T15:30:29.376Z,100167.00
2023-05-14T15:32:57.304Z,100158.75
2023-05-14T15:35:26.768Z,100171.19
2023-05-14T15:37:57.365Z,100176.28
2023-05-14T15:40:25.615Z,100157.72
2023-05-14T15:42:53.527Z,100177.78
2023-05-14T15:45:21.690Z,100167.88
2023-05-14T15:47:49.714Z,100165.16
2023-05-14T15:50:17.686Z,100174.81
2023-05-14T15:52:47.105Z,100170.22
2023-05-14T15:55:15.076Z,100154.13
2023-05-14T15:57:43.003Z,100169.53
2023-05-14T16:00:12.132Z,100165.59
2023-05-14T16:02:40.463Z,100170.28
2023-05-14T16:05:09.619Z,100175.47
2023-05-14T16:07:37.869Z,100171.75
2023-05-14T16:10:08.323Z,100170.06
2023-05-14T16:12:36.299Z,100170.06
2023-05-14T16:15:04.609Z,100174.00
2023-05-14T16:17:32.856Z,100176.13
2023-05-14T16:20:01.236Z,100177.00
2023-05-14T16:22:29.495Z,100180.56
2023-05-14T16:24:57.448Z,100178.81
2023-05-14T16:27:27.076Z,100182.16
2023-05-14T16:29:54.945Z,100181.00
2023-05-14T16:32:24.927Z,100180.50
2023-05-14T16:34:52.921Z,100187.69
2023-05-14T16:37:21.230Z,100193.53
2023-05-14T16:39:49.878Z,100197.06
2023-05-14T16:42:17.903Z,100193.66
2023-05-14T16:44:47.319Z,100193.50
2023-05-14T16:47:15.161Z,100196.44
2023-05-14T16:49:43.360Z,100199.00
2023-05-14T16:52:11.299Z,100200.22
2023-05-14T16:54:39.270Z,100197.13
2023-05-14T16:57:07.402Z,100202.00
2023-05-14T16:59:35.418Z,100204.63
2023-05-14T17:02:04.846Z,100209.03
2023-05-14T17:04:33.473Z,100196.84
2023-05-14T17:07:01.704Z,100193.03
2023-05-14T17:09:29.568Z,100179.59
2023-05-14T17:11:57.516Z,100179.38
2023-05-14T17:14:25.396Z,100166.50
2023-05-14T17:16:53.405Z,100177.00
2023-05-14T17:19:22.666Z,100190.16
2023-05-14T17:21:50.888Z,100202.03
2023-05-14T17:24:18.858Z,100194.47
2023-05-14T17:26:46.797Z,100190.97
2023-05-14T17:29:14.755Z,100186.84
2023-05-14T17:31:43.194Z,100183.94
2023-05-14T17:34:11.352Z,100154.19
2023-05-14T17:36:40.806Z,100187.56
2023-05-14T17:39:09.146Z,100199.50
2023-05-14T17:41:37.058Z,100208.56
2023-05-14T17:44:05.220Z,100212.06
2023-05-14T17:46:33.754Z,100215.28
2023-05-14T17:49:01.791Z,100229.84
2023-05-14T17:51:29.714Z,100227.38
2023-05-14T17:53:59.023Z,100218.63
2023-05-14T17:56:27.121Z,100215.66
2023-05-14T17:58:55.028Z,100210.78
2023-05-14T18:01:23.170Z,100206.00
2023-05-14T18:03:51.204Z,100209.81
2023-05-14T18:06:19.284Z,100210.41
2023-05-14T18:08:47.221Z,100199.91
2023-05-14T18:11:16.459Z,100201.81
2023-05-14T18:13:44.473Z,100203.13
2023-05-14T18:16:12.484Z,100197.31
2023-05-14T18:18:40.620Z,100197.06
2023-05-14T18:21:08.551Z,100141.63
2023-05-14T18:23:36.482Z,100183.81
2023-05-14T18:26:05.441Z,100173.44
2023-05-14T18:28:34.812Z,100151.88
2023-05-14T18:31:04.098Z,100148.06
2023-05-14T18:33:32.101Z,100152.69
2023-05-14T18:36:00.232Z,100153.31
2023-05-14T18:38:28.343Z,100175.97
2023-05-14T18:40:56.283Z,100189.53
2023-05-14T18:43:24.290Z,100193.00
2023-05-14T18:45:53.643Z,100189.44
2023-05-14T18:48:21.625Z,100184.28
2023-05-14T18:50:49.536Z,100177.38
2023-05-14T18:53:17.500Z,100179.91
2023-05-14T18:55:45.473Z,100179.50
2023-05-14T18:58:14.545Z,100184.03
2023-05-14T19:00:42.449Z,100175.72
2023-05-14T19:03:11.825Z,100170.59
2023-05-14T19:05:39.901Z,100176.44
2023-05-14T19:08:08.521Z,100168.09
2023-05-14T19:10:36.481Z,100160.84
2023-05-14T19:13:04.420Z,100136.38
2023-05-14T19:15:32.555Z,100122.31
2023-05-14T19:18:00.638Z,100118.03
2023-05-14T19:20:29.973Z,100131.63
2023-05-14T19:22:57.940Z,100145.22
2023-05-14T19:25:25.986Z,100153.78
2023-05-14T19:27:55.306Z,100145.56
2023-05-14T19:30:23.882Z,100142.47
2023-05-14T19:32:51.856Z,100141.28
2023-05-14T19:35:19.796Z,100137.00
2023-05-14T19:37:49.150Z,100133.06
2023-05-14T19:40:17.102Z,100122.44
2023-05-14T19:42:44.982Z,100109.81
2023-05-14T19:45:13.140Z,100098.16
2023-05-14T19:47:41.655Z,100121.63
2023-05-14T19:50:10.558Z,100119.72
2023-05-14T19:52:38.445Z,100111.38
2023-05-14T19:55:08.513Z,100094.69
2023-05-14T19:57:37.248Z,100100.06
2023-05-14T20:00:06.315Z,100093.88
2023-05-14T20:02:34.306Z,100095.16
2023-05-14T20:05:02.389Z,100082.19
2023-05-14T20:07:30.499Z,100100.16
2023-05-14T20:09:58.354Z,100097.06
2023-05-14T20:12:27.774Z,100092.66
2023-05-14T20:14:56.021Z,100104.56
2023-05-14T20:17:24.962Z,100097.66
2023-05-14T20:19:53.319Z,100066.19
2023-05-14T20:22:21.236Z,100103.34
2023-05-14T20:24:49.160Z,100101.00
2023-05-14T20:27:17.147Z,100098.16
2023-05-14T20:29:46.789Z,100098.38
2023-05-14T20:32:15.721Z,100093.38
2023-05-14T20:34:43.689Z,100071.09
2023-05-14T20:37:11.894Z,100080.34
2023-05-14T20:39:39.860Z,100075.13
2023-05-14T20:42:08.409Z,100073.44
2023-05-14T20:44:36.342Z,100073.22
2023-05-14T20:47:06.020Z,100081.78
2023-05-14T20:49:33.875Z,100071.44
2023-05-14T20:52:01.807Z,100089.88
2023-05-14T20:54:29.737Z,100082.13
2023-05-14T20:56:57.596Z,100068.78
2023-05-14T20:59:25.640Z,100080.63
2023-05-14T21:01:53.529Z,100082.63
2023-05-14T21:04:23.095Z,100084.63
2023-05-14T21:06:51.190Z,100069.63
2023-05-14T21:09:20.941Z,100056.03
2023-05-14T21:11:48.858Z,100056.84
2023-05-14T21:14:17.305Z,100063.59
2023-05-14T21:16:45.216Z,100073.91
2023-05-14T21:19:15.288Z,100062.44
2023-05-14T21:21:44.856Z,100058.59
2023-05-14T21:24:12.769Z,100049.13
2023-05-14T21:26:41.469Z,100048.41
2023-05-14T21:29:09.397Z,100062.94
2023-05-14T21:31:37.341Z,100061.78
2023-05-14T21:34:05.366Z,100058.16
2023-05-14T21:36:33.462Z,100040.19
2023-05-14T21:39:02.841Z,100029.56
2023-05-14T21:41:31.611Z,100046.09
2023-05-14T21:43:59.496Z,100051.88
2023-05-14T21:46:28.962Z,100037.34
2023-05-14T21:48:56.984Z,100046.75
2023-05-14T21:51:25.434Z,100044.03
2023-05-14T21:53:53.328Z,100039.34
2023-05-14T21:56:22.683Z,100035.44
2023-05-14T21:58:50.614Z,100033.44
2023-05-14T22:01:18.564Z,100038.88
2023-05-14T22:03:46.626Z,100037.44
2023-05-14T22:06:14.543Z,100022.84
2023-05-14T22:08:42.470Z,100034.28
2023-05-14T22:11:10.382Z,100040.06
2023-05-14T22:13:41.048Z,100028.31
2023-05-14T22:16:13.245Z,100024.00
2023-05-14T22:18:42.031Z,100019.00
2023-05-14T22:21:10.010Z,100011.69
2023-05-14T22:23:37.955Z,99997.88
2023-05-14T22:26:06.224Z,100005.25
2023-05-14T22:28:34.141Z,99991.09
2023-05-14T22:31:04.234Z,99985.81
2023-05-14T22:33:33.223Z,100004.69
2023-05-14T22:36:01.096Z,100009.94
2023-05-14T22:38:29.124Z,100001.28
2023-05-14T22:40:57.042Z,100000.81
2023-05-14T22:43:25.001Z,100003.13
2023-05-14T22:45:53.002Z,100002.97
2023-05-14T22:48:22.492Z,100000.25
2023-05-14T22:50:50.405Z,100001.44
2023-05-14T22:53:18.261Z,99992.47
2023-05-14T22:55:46.260Z,99986.19
2023-05-14T22:58:14.151Z,99987.31
2023-05-14T23:00:42.094Z,99972.41
2023-05-14T23:03:10.028Z,99988.38
2023-05-14T23:05:39.416Z,99984.66
2023-05-14T23:08:07.582Z,99980.66
2023-05-14T23:10:36.477Z,99987.53
2023-05-14T23:13:05.369Z,99984.53
2023-05-14T23:15:34.199Z,99984.84
2023-05-14T23:18:02.258Z,99969.41
2023-05-14T23:20:30.167Z,99987.41
2023-05-14T23:22:59.411Z,99962.59
2023-05-14T23:25:27.462Z,99981.75
2023-05-14T23:27:55.409Z,99959.50
2023-05-14T23:30:23.443Z,99982.44
2023-05-14T23:32:51.411Z,99985.06
2023-05-14T23:35:19.568Z,99970.00
2023-05-14T23:37:49.586Z,99968.78
2023-05-14T23:40:19.245Z,99948.75
2023-05-14T23:42:47.145Z,99963.00
2023-05-14T23:45:15.139Z,99960.91
2023-05-14T23:47:43.263Z,99961.53
2023-05-14T23:50:11.504Z,99957.25
2023-05-14T23:52:39.456Z,99957.63
2023-05-14T23:55:08.094Z,99951.72
2023-05-14T23:57:37.440Z,99961.34
